Marriott-Slaterville City, Utah
Current Conditions -  °F | °C
As of 7:53 PM on Friday 21 Nov 2014 (Local Time) from KOGD Reporting Station
Clear Clear  
Wind Chill: 30°   Ceiling: Unl
Heat Index: 35°   Visibility: 10mi
Dew Point: 25°   Wind: 6mph
Humidity: 67%   Direction: 200°SSW
Pressure: 29.98"   Gusts: NA
Location:  41.2701°N, 112.135°W
Report Text: KOGD 220253Z AUTO 20005KT 10SM CLR 02/M04 A2998 RMK AO2 SLP158 T00171039 56003 TSNO
Loading
Personal Weather Stations






























Interactive Weather Map New forecast layout! Learn more

10-Day Weather Forecast

Advertisements
Track Severe Weather on mobile